Time;durP1;ratioP1;P1;durP2;ratioP2;P2;SDS_P1;SDS_P2;PMS_P1;PMS_P2;Temp;Humidity;BMP_temperature;BMP_pressure;BME280_temperature;BME280_humidity;BME280_pressure;Samples;Min_cycle;Max_cycle;Signal;HPM_P1;HPM_P2
2022/04/12 00:00:25;;;;;;;;;;;7.40;60.00;;;;;;5032175;28;81788;-49
2022/04/12 00:02:51;;;;;;;;;;;7.40;59.90;;;;;;5031232;28;84286;-49
2022/04/12 00:05:16;;;;;;;;;;;7.30;59.80;;;;;;5031970;28;81927;-49
2022/04/12 00:07:43;;;;;;;;;;;7.30;60.00;;;;;;5034860;28;81809;-48
2022/04/12 00:10:10;;;;;;;;;;;7.40;60.00;;;;;;5031975;28;81850;-49
2022/04/12 00:12:37;;;;;;;;;;;7.30;59.90;;;;;;5032005;28;82147;-48
2022/04/12 00:15:04;;;;;;;;;;;7.30;59.70;;;;;;5031707;28;82578;-49
2022/04/12 00:20:15;;;;;;;;;;;7.30;59.80;;;;;;5032654;28;81198;-48
2022/04/12 00:22:41;;;;;;;;;;;7.30;59.80;;;;;;5031571;28;82661;-49
2022/04/12 00:25:10;;;;;;;;;;;7.30;59.80;;;;;;5031679;28;81819;-50
2022/04/12 00:27:40;;;;;;;;;;;7.30;59.80;;;;;;5031072;28;82969;-49
2022/04/12 00:30:07;;;;;;;;;;;7.20;59.90;;;;;;5034096;28;83455;-49
2022/04/12 00:32:33;;;;;;;;;;;7.20;60.40;;;;;;5031842;28;83427;-48
2022/04/12 00:34:59;;;;;;;;;;;7.20;59.80;;;;;;5031344;28;82820;-49
2022/04/12 00:37:25;;;;;;;;;;;7.20;59.70;;;;;;5031563;28;81822;-48
2022/04/12 00:39:52;;;;;;;;;;;7.20;59.90;;;;;;5031811;28;81745;-49
2022/04/12 00:42:17;;;;;;;;;;;7.20;59.80;;;;;;5031532;28;82912;-49
2022/04/12 00:44:43;;;;;;;;;;;7.20;59.80;;;;;;5031784;28;81068;-49
2022/04/12 00:47:08;;;;;;;;;;;7.20;59.80;;;;;;5031743;28;81837;-49
2022/04/12 00:49:34;;;;;;;;;;;7.10;59.80;;;;;;5031207;28;83329;-48
2022/04/12 00:52:00;;;;;;;;;;;7.20;59.80;;;;;;5033530;28;82887;-49
2022/04/12 00:54:26;;;;;;;;;;;7.10;59.70;;;;;;5031159;28;82606;-48
2022/04/12 00:56:52;;;;;;;;;;;7.10;59.70;;;;;;5031550;28;81718;-48
2022/04/12 00:59:18;;;;;;;;;;;7.10;59.80;;;;;;5031202;28;83046;-48
2022/04/12 01:01:44;;;;;;;;;;;7.10;59.90;;;;;;5030976;28;83859;-48
2022/04/12 01:04:10;;;;;;;;;;;7.10;59.90;;;;;;5031110;28;81806;-49
2022/04/12 01:06:38;;;;;;;;;;;7.00;59.90;;;;;;5031114;28;82972;-49
2022/04/12 01:09:05;;;;;;;;;;;7.00;59.80;;;;;;5031441;28;81928;-49
2022/04/12 01:11:33;;;;;;;;;;;7.00;59.80;;;;;;5030989;28;81830;-49
2022/04/12 01:13:59;;;;;;;;;;;7.00;59.80;;;;;;5033520;28;81854;-49
2022/04/12 01:16:25;;;;;;;;;;;7.00;59.70;;;;;;5030292;28;82766;-49
2022/04/12 01:18:51;;;;;;;;;;;7.00;59.70;;;;;;5030931;28;84087;-49
2022/04/12 01:21:16;;;;;;;;;;;7.00;59.70;;;;;;5030895;28;82455;-49
2022/04/12 01:23:50;;;;;;;;;;;7.10;59.60;;;;;;5030803;28;81801;-49
2022/04/12 01:26:15;;;;;;;;;;;7.00;59.70;;;;;;5031096;28;81819;-49
2022/04/12 01:28:44;;;;;;;;;;;7.00;59.70;;;;;;5030883;28;82890;-49
2022/04/12 01:31:10;;;;;;;;;;;7.00;59.70;;;;;;5030673;28;82069;-49
2022/04/12 01:33:36;;;;;;;;;;;6.90;59.70;;;;;;5033996;28;81058;-49
2022/04/12 01:36:02;;;;;;;;;;;6.90;59.80;;;;;;5030600;28;81798;-49
2022/04/12 01:38:28;;;;;;;;;;;7.00;59.70;;;;;;5030917;28;81758;-49
2022/04/12 01:40:54;;;;;;;;;;;6.90;59.80;;;;;;5029764;28;84097;-49
2022/04/12 01:43:19;;;;;;;;;;;6.90;59.60;;;;;;5030820;28;82098;-51
2022/04/12 01:45:45;;;;;;;;;;;6.90;59.70;;;;;;5030136;28;82866;-51
2022/04/12 01:48:11;;;;;;;;;;;6.90;59.60;;;;;;5030549;28;82320;-51
2022/04/12 01:50:36;;;;;;;;;;;6.80;59.70;;;;;;5030497;28;81887;-48
2022/04/12 01:53:02;;;;;;;;;;;6.80;59.70;;;;;;5030744;28;81950;-49
2022/04/12 01:55:28;;;;;;;;;;;6.80;59.70;;;;;;5032889;28;82530;-51
2022/04/12 01:57:54;;;;;;;;;;;6.80;59.70;;;;;;5030810;28;82048;-50
2022/04/12 02:00:20;;;;;;;;;;;6.80;59.70;;;;;;5030134;28;84263;-51
2022/04/12 02:02:45;;;;;;;;;;;6.80;59.60;;;;;;5030267;28;81786;-51
2022/04/12 02:05:11;;;;;;;;;;;6.70;59.60;;;;;;5029578;28;82716;-50
2022/04/12 02:07:36;;;;;;;;;;;6.70;59.80;;;;;;5030174;28;82687;-50
2022/04/12 02:10:02;;;;;;;;;;;6.70;59.80;;;;;;5030442;28;81788;-48
2022/04/12 02:12:28;;;;;;;;;;;6.70;59.80;;;;;;5030214;28;81955;-50
2022/04/12 02:14:54;;;;;;;;;;;6.70;59.70;;;;;;5029676;28;83307;-50
2022/04/12 02:17:20;;;;;;;;;;;6.70;59.70;;;;;;5032701;28;81753;-50
2022/04/12 02:19:45;;;;;;;;;;;6.70;59.60;;;;;;5029850;28;83513;-50
2022/04/12 02:22:11;;;;;;;;;;;6.70;59.70;;;;;;5030499;28;81094;-51
2022/04/12 02:24:37;;;;;;;;;;;6.60;59.60;;;;;;5030335;28;81726;-48
2022/04/12 02:27:03;;;;;;;;;;;6.60;59.70;;;;;;5029832;28;81806;-50
2022/04/12 02:29:28;;;;;;;;;;;6.60;59.70;;;;;;5029201;28;82752;-50
2022/04/12 02:31:54;;;;;;;;;;;6.60;59.80;;;;;;5029903;28;82644;-51
2022/04/12 02:34:20;;;;;;;;;;;6.60;59.70;;;;;;5029559;28;83512;-48
2022/04/12 02:36:47;;;;;;;;;;;6.60;59.70;;;;;;5030103;28;81736;-48
2022/04/12 02:39:12;;;;;;;;;;;6.60;59.70;;;;;;5032233;28;83302;-51
2022/04/12 02:41:38;;;;;;;;;;;6.60;59.70;;;;;;5029830;28;81810;-50
2022/04/12 02:44:04;;;;;;;;;;;6.60;59.70;;;;;;5029901;28;81810;-51
2022/04/12 02:46:29;;;;;;;;;;;6.50;59.70;;;;;;5029718;28;82618;-50
2022/04/12 02:48:55;;;;;;;;;;;6.50;59.70;;;;;;5029905;28;81858;-51
2022/04/12 02:51:20;;;;;;;;;;;6.50;59.80;;;;;;5029904;28;82150;-51
2022/04/12 02:53:46;;;;;;;;;;;6.50;59.70;;;;;;5029014;28;83010;-50
2022/04/12 02:56:12;;;;;;;;;;;6.40;59.80;;;;;;5029443;28;82170;-51
2022/04/12 02:58:37;;;;;;;;;;;6.40;59.70;;;;;;5029567;28;82754;-50
2022/04/12 03:01:03;;;;;;;;;;;6.40;59.70;;;;;;5031992;28;83585;-50
2022/04/12 03:03:29;;;;;;;;;;;6.40;59.80;;;;;;5029460;28;82096;-51
2022/04/12 03:05:54;;;;;;;;;;;6.40;59.70;;;;;;5029099;28;83573;-52
2022/04/12 03:08:22;;;;;;;;;;;6.40;59.60;;;;;;5029745;28;81858;-51
2022/04/12 03:10:49;;;;;;;;;;;6.40;59.60;;;;;;5029824;28;82936;-51
2022/04/12 03:13:15;;;;;;;;;;;6.40;59.60;;;;;;5029214;28;82653;-50
2022/04/12 03:15:40;;;;;;;;;;;6.40;59.70;;;;;;5029517;28;81858;-51
2022/04/12 03:18:06;;;;;;;;;;;6.40;59.70;;;;;;5028764;28;82944;-51
2022/04/12 03:20:33;;;;;;;;;;;6.30;59.70;;;;;;5029272;28;82630;-51
2022/04/12 03:22:58;;;;;;;;;;;6.30;59.70;;;;;;5031983;28;81819;-50
2022/04/12 03:25:24;;;;;;;;;;;6.30;59.70;;;;;;5029296;28;81965;-50
2022/04/12 03:27:50;;;;;;;;;;;6.30;59.70;;;;;;5030542;28;81798;-51
2022/04/12 03:30:16;;;;;;;;;;;6.30;59.70;;;;;;5032703;28;82749;-51
2022/04/12 03:32:42;;;;;;;;;;;6.30;59.70;;;;;;5032438;28;83854;-52
2022/04/12 03:35:08;;;;;;;;;;;6.30;59.70;;;;;;5033213;28;81082;-50
2022/04/12 03:37:34;;;;;;;;;;;6.30;59.70;;;;;;5032825;28;81877;-51
2022/04/12 03:39:59;;;;;;;;;;;6.30;59.60;;;;;;5032813;28;81981;-51
2022/04/12 03:42:25;;;;;;;;;;;6.20;59.60;;;;;;5034769;28;82724;-51
2022/04/12 03:44:51;;;;;;;;;;;6.20;59.70;;;;;;5032086;28;81757;-50
2022/04/12 03:47:17;;;;;;;;;;;6.20;59.70;;;;;;5032273;28;81895;-51
2022/04/12 03:49:44;;;;;;;;;;;6.20;59.70;;;;;;5032687;28;81791;-51
2022/04/12 03:52:10;;;;;;;;;;;6.20;59.70;;;;;;5032145;28;83324;-50
2022/04/12 03:54:36;;;;;;;;;;;6.20;59.70;;;;;;5032473;28;81806;-50
2022/04/12 03:57:02;;;;;;;;;;;6.20;59.60;;;;;;5032166;28;82152;-51
2022/04/12 03:59:28;;;;;;;;;;;6.20;59.60;;;;;;5032834;28;81736;-51
2022/04/12 04:01:53;;;;;;;;;;;6.20;59.70;;;;;;5032127;28;81888;-51
2022/04/12 04:04:19;;;;;;;;;;;6.10;59.60;;;;;;5034715;28;82760;-51
2022/04/12 04:06:45;;;;;;;;;;;6.20;59.50;;;;;;5031324;28;82856;-51
2022/04/12 04:09:11;;;;;;;;;;;6.10;59.60;;;;;;5032071;28;83859;-51
2022/04/12 04:11:40;;;;;;;;;;;6.10;59.70;;;;;;5031843;28;83423;-51
2022/04/12 04:14:14;;;;;;;;;;;6.10;59.70;;;;;;5032007;28;81726;-51
2022/04/12 04:16:39;;;;;;;;;;;6.10;59.70;;;;;;5032070;28;82113;-51
2022/04/12 04:19:08;;;;;;;;;;;6.00;59.60;;;;;;5032015;28;82599;-51
2022/04/12 04:21:37;;;;;;;;;;;6.10;59.60;;;;;;5031942;28;81845;-51
2022/04/12 04:24:03;;;;;;;;;;;6.10;59.60;;;;;;5032540;28;81892;-52
2022/04/12 04:26:29;;;;;;;;;;;6.00;59.60;;;;;;5034466;28;82481;-52
2022/04/12 04:28:55;;;;;;;;;;;6.00;59.50;;;;;;5031828;28;82730;-51
2022/04/12 04:31:21;;;;;;;;;;;6.00;59.60;;;;;;5030760;28;83449;-50
2022/04/12 04:33:47;;;;;;;;;;;6.00;59.50;;;;;;5031361;28;81992;-50
2022/04/12 04:36:12;;;;;;;;;;;6.00;59.70;;;;;;5031738;28;82864;-51
2022/04/12 04:38:39;;;;;;;;;;;6.00;59.60;;;;;;5031393;28;82797;-50
2022/04/12 04:41:05;;;;;;;;;;;6.00;59.60;;;;;;5031917;28;81822;-50
2022/04/12 04:43:30;;;;;;;;;;;5.90;59.50;;;;;;5031645;28;82881;-53
2022/04/12 04:45:57;;;;;;;;;;;6.00;59.60;;;;;;5031174;28;82395;-50
2022/04/12 04:48:23;;;;;;;;;;;6.00;59.60;;;;;;5034936;28;80978;-50
2022/04/12 04:50:48;;;;;;;;;;;5.90;59.40;;;;;;5030951;28;83238;-50
2022/04/12 04:53:14;;;;;;;;;;;5.90;59.60;;;;;;5031222;28;81810;-50
2022/04/12 04:55:42;;;;;;;;;;;5.90;59.40;;;;;;5030761;28;83083;-50
2022/04/12 04:58:08;;;;;;;;;;;5.90;59.50;;;;;;5031101;28;84011;-50
2022/04/12 05:00:34;;;;;;;;;;;5.90;59.50;;;;;;5031253;28;81875;-50
2022/04/12 05:03:01;;;;;;;;;;;5.90;59.50;;;;;;5031309;28;82999;-50
2022/04/12 05:05:27;;;;;;;;;;;5.90;59.40;;;;;;5030837;28;83505;-50
2022/04/12 05:07:53;;;;;;;;;;;5.90;59.40;;;;;;5031206;28;81822;-51
2022/04/12 05:10:20;;;;;;;;;;;5.90;59.40;;;;;;5033696;28;82036;-51
2022/04/12 05:12:46;;;;;;;;;;;5.90;59.40;;;;;;5031774;28;81080;-48
2022/04/12 05:15:12;;;;;;;;;;;5.80;59.50;;;;;;5031311;28;81765;-50
2022/04/12 05:17:38;;;;;;;;;;;5.90;59.50;;;;;;5030759;28;83522;-50
2022/04/12 05:20:07;;;;;;;;;;;5.80;59.40;;;;;;5030287;28;82869;-48
2022/04/12 05:22:33;;;;;;;;;;;5.80;59.40;;;;;;5030846;28;84035;-50
2022/04/12 05:24:59;;;;;;;;;;;5.80;59.40;;;;;;5030704;28;83725;-51
2022/04/12 05:27:29;;;;;;;;;;;5.90;59.40;;;;;;5030749;28;81988;-51
2022/04/12 05:29:57;;;;;;;;;;;5.80;59.30;;;;;;5031147;28;82181;-50
2022/04/12 05:32:22;;;;;;;;;;;5.80;59.30;;;;;;5033376;28;83792;-50
2022/04/12 05:34:48;;;;;;;;;;;5.80;59.40;;;;;;5030777;28;83328;-50
2022/04/12 05:37:13;;;;;;;;;;;5.90;59.40;;;;;;5030943;28;82852;-48
2022/04/12 05:39:39;;;;;;;;;;;5.80;59.40;;;;;;5030595;28;81798;-50
2022/04/12 05:42:05;;;;;;;;;;;5.80;59.30;;;;;;5030945;28;81839;-50
2022/04/12 05:44:33;;;;;;;;;;;5.80;59.30;;;;;;5029728;28;82984;-50
2022/04/12 05:47:00;;;;;;;;;;;5.80;59.40;;;;;;5030575;28;81803;-48
2022/04/12 05:49:26;;;;;;;;;;;5.80;59.50;;;;;;5030524;28;83166;-50
2022/04/12 05:51:52;;;;;;;;;;;5.80;59.50;;;;;;5032120;28;83361;-50
2022/04/12 05:54:18;;;;;;;;;;;5.80;59.50;;;;;;5030600;28;83148;-50
2022/04/12 05:56:43;;;;;;;;;;;5.80;59.40;;;;;;5030169;28;82533;-50
2022/04/12 05:59:09;;;;;;;;;;;5.80;59.40;;;;;;5030321;28;81913;-50
2022/04/12 06:01:34;;;;;;;;;;;5.70;59.50;;;;;;5030792;28;82870;-50
2022/04/12 06:04:00;;;;;;;;;;;5.80;59.60;;;;;;5030069;28;83396;-50
2022/04/12 06:06:27;;;;;;;;;;;5.70;59.70;;;;;;5030282;28;81808;-50
2022/04/12 06:08:54;;;;;;;;;;;5.80;59.70;;;;;;5029622;28;83129;-50
2022/04/12 06:11:19;;;;;;;;;;;5.80;59.70;;;;;;5030046;28;82638;-50
2022/04/12 06:13:45;;;;;;;;;;;5.80;59.80;;;;;;5033113;28;81860;-50
2022/04/12 06:16:11;;;;;;;;;;;5.70;59.80;;;;;;5029888;28;83630;-51
2022/04/12 06:18:36;;;;;;;;;;;5.70;60.40;;;;;;5030085;28;82075;-48
2022/04/12 06:21:02;;;;;;;;;;;5.80;59.80;;;;;;5030108;28;82627;-50
2022/04/12 06:23:28;;;;;;;;;;;5.70;60.00;;;;;;5030030;28;82320;-50
2022/04/12 06:25:55;;;;;;;;;;;5.70;60.00;;;;;;5030366;28;81139;-50
2022/04/12 06:28:20;;;;;;;;;;;5.70;60.00;;;;;;5029910;28;82372;-50
2022/04/12 06:30:51;;;;;;;;;;;5.70;60.10;;;;;;5029805;28;83358;-50
2022/04/12 06:33:17;;;;;;;;;;;5.70;60.10;;;;;;5029313;28;82802;-50
2022/04/12 06:35:42;;;;;;;;;;;5.70;60.20;;;;;;5032611;28;82112;-50
2022/04/12 06:38:10;;;;;;;;;;;5.70;60.90;;;;;;5029977;28;81901;-50
2022/04/12 06:40:35;;;;;;;;;;;5.70;60.30;;;;;;5029859;28;82985;-50
2022/04/12 06:43:01;;;;;;;;;;;5.70;60.30;;;;;;5029419;28;83385;-51
2022/04/12 06:45:27;;;;;;;;;;;5.70;60.40;;;;;;5029285;28;81930;-50
2022/04/12 06:47:58;;;;;;;;;;;5.70;60.50;;;;;;5029555;28;83002;-50
2022/04/12 06:50:24;;;;;;;;;;;5.60;60.50;;;;;;5029994;28;81558;-51
2022/04/12 06:52:51;;;;;;;;;;;5.70;60.60;;;;;;5029614;28;81777;-50
2022/04/12 06:55:16;;;;;;;;;;;5.70;60.50;;;;;;5029544;28;82871;-48
2022/04/12 06:57:42;;;;;;;;;;;5.70;60.60;;;;;;5031453;28;84511;-50
2022/04/12 07:00:08;;;;;;;;;;;5.60;60.50;;;;;;5029650;28;83969;-51
2022/04/12 07:02:34;;;;;;;;;;;5.60;60.80;;;;;;5031637;28;83947;-51
2022/04/12 07:05:01;;;;;;;;;;;5.60;60.90;;;;;;5033555;28;81864;-51
2022/04/12 07:07:26;;;;;;;;;;;5.60;61.00;;;;;;5033245;28;82825;-51
2022/04/12 07:09:52;;;;;;;;;;;5.50;61.10;;;;;;5032943;28;82637;-48
2022/04/12 07:12:18;;;;;;;;;;;5.50;60.90;;;;;;5033018;28;81916;-51
2022/04/12 07:14:43;;;;;;;;;;;5.50;61.00;;;;;;5033660;28;81904;-51
2022/04/12 07:17:09;;;;;;;;;;;5.50;60.90;;;;;;5032873;28;82470;-51
2022/04/12 07:19:34;;;;;;;;;;;5.60;61.10;;;;;;5035960;28;82017;-51
2022/04/12 07:22:00;;;;;;;;;;;5.60;61.20;;;;;;5032634;28;82878;-51
2022/04/12 07:24:26;;;;;;;;;;;5.60;61.20;;;;;;5032892;28;81829;-52
2022/04/12 07:26:51;;;;;;;;;;;5.50;61.20;;;;;;5032881;28;83004;-51
2022/04/12 07:29:17;;;;;;;;;;;5.60;61.20;;;;;;5032500;28;82355;-51
2022/04/12 07:31:43;;;;;;;;;;;5.60;61.20;;;;;;5033068;28;82037;-52
2022/04/12 07:34:09;;;;;;;;;;;5.60;61.80;;;;;;5032701;28;82954;-52
2022/04/12 07:36:39;;;;;;;;;;;5.60;61.30;;;;;;5032671;28;82436;-52
2022/04/12 07:39:08;;;;;;;;;;;5.60;61.30;;;;;;5033159;28;81370;-54
2022/04/12 07:41:33;;;;;;;;;;;5.60;61.20;;;;;;5035233;28;82186;-51
2022/04/12 07:43:59;;;;;;;;;;;5.70;61.80;;;;;;5032693;28;81816;-52
2022/04/12 07:46:25;;;;;;;;;;;5.60;61.30;;;;;;5031762;28;82836;-52
2022/04/12 07:48:50;;;;;;;;;;;5.60;61.30;;;;;;5032411;28;83320;-50
2022/04/12 07:51:16;;;;;;;;;;;5.60;61.30;;;;;;5032525;28;81845;-52
2022/04/12 07:53:42;;;;;;;;;;;5.60;61.30;;;;;;5032559;28;82243;-51
2022/04/12 07:56:08;;;;;;;;;;;5.60;61.40;;;;;;5032178;28;83510;-51
2022/04/12 07:58:33;;;;;;;;;;;5.60;61.40;;;;;;5032598;28;81804;-51
2022/04/12 08:00:59;;;;;;;;;;;5.60;61.40;;;;;;5034903;28;82001;-51
2022/04/12 08:03:25;;;;;;;;;;;5.60;61.50;;;;;;5032745;28;81421;-52
2022/04/12 08:05:51;;;;;;;;;;;5.60;61.50;;;;;;5032095;28;81928;-52
2022/04/12 08:08:17;;;;;;;;;;;5.60;61.50;;;;;;5032332;28;81719;-51
2022/04/12 08:10:43;;;;;;;;;;;5.60;61.50;;;;;;5031511;28;82706;-51
2022/04/12 08:13:10;;;;;;;;;;;5.60;61.40;;;;;;5031860;28;81763;-51
2022/04/12 08:15:37;;;;;;;;;;;5.60;61.30;;;;;;5032130;28;82518;-51
2022/04/12 08:18:05;;;;;;;;;;;5.60;61.40;;;;;;5031951;28;81770;-51
2022/04/12 08:20:31;;;;;;;;;;;5.70;61.30;;;;;;5032094;28;82976;-52
2022/04/12 08:22:57;;;;;;;;;;;5.60;61.30;;;;;;5034735;28;81947;-52
2022/04/12 08:25:23;;;;;;;;;;;5.60;61.30;;;;;;5032309;28;82088;-52
2022/04/12 08:27:49;;;;;;;;;;;5.70;61.30;;;;;;5032456;28;81726;-52
2022/04/12 08:30:14;;;;;;;;;;;5.70;61.30;;;;;;5031928;28;81771;-52
2022/04/12 08:32:40;;;;;;;;;;;5.70;61.40;;;;;;5031944;28;82657;-50
2022/04/12 08:35:06;;;;;;;;;;;5.70;61.30;;;;;;5030925;28;84288;-51
2022/04/12 08:37:32;;;;;;;;;;;5.70;61.20;;;;;;5031775;28;81863;-50
2022/04/12 08:39:58;;;;;;;;;;;5.70;61.40;;;;;;5031594;28;82590;-50
2022/04/12 08:42:23;;;;;;;;;;;5.70;61.50;;;;;;5031312;28;83328;-52
2022/04/12 08:44:49;;;;;;;;;;;5.70;61.50;;;;;;5034044;28;82077;-51
2022/04/12 08:47:16;;;;;;;;;;;5.80;61.40;;;;;;5031259;28;82899;-50
2022/04/12 08:49:42;;;;;;;;;;;5.80;61.30;;;;;;5031401;28;81838;-51
2022/04/12 08:52:11;;;;;;;;;;;5.80;61.40;;;;;;5031975;28;82999;-50
2022/04/12 08:54:40;;;;;;;;;;;5.80;61.50;;;;;;5031154;28;83411;-53
2022/04/12 08:57:07;;;;;;;;;;;5.80;61.40;;;;;;5031652;28;82030;-53
2022/04/12 08:59:33;;;;;;;;;;;5.80;61.40;;;;;;5030834;28;83209;-50
2022/04/12 09:01:58;;;;;;;;;;;5.80;61.40;;;;;;5031435;28;81838;-50
2022/04/12 09:04:27;;;;;;;;;;;5.80;61.60;;;;;;5031173;28;82014;-50
2022/04/12 09:06:54;;;;;;;;;;;5.80;61.50;;;;;;5033672;28;81954;-50
2022/04/12 09:09:21;;;;;;;;;;;5.80;61.60;;;;;;5031188;28;81830;-51
2022/04/12 09:12:03;;;;;;;;;;;5.80;61.50;;;;;;5031191;28;82055;-50
2022/04/12 09:14:39;;;;;;;;;;;5.80;61.20;;;;;;5030929;28;83672;-50
2022/04/12 09:17:06;;;;;;;;;;;5.90;61.20;;;;;;5031518;28;80997;-50
2022/04/12 09:19:38;;;;;;;;;;;5.90;61.20;;;;;;5031047;28;82249;-51
2022/04/12 09:22:08;;;;;;;;;;;5.90;61.40;;;;;;5030745;28;82523;-51
2022/04/12 09:24:36;;;;;;;;;;;5.90;61.30;;;;;;5030026;28;82880;-50
2022/04/12 09:27:02;;;;;;;;;;;5.90;61.40;;;;;;5030417;28;82756;-50
2022/04/12 09:29:29;;;;;;;;;;;5.90;61.20;;;;;;5033352;28;83469;-51
2022/04/12 09:31:55;;;;;;;;;;;5.90;61.20;;;;;;5030915;28;82957;-50
2022/04/12 09:34:21;;;;;;;;;;;5.90;61.20;;;;;;5030711;28;82431;-50
2022/04/12 09:36:47;;;;;;;;;;;6.00;61.20;;;;;;5030737;28;81792;-50
2022/04/12 09:39:15;;;;;;;;;;;6.00;61.20;;;;;;5030876;28;81725;-50
2022/04/12 09:41:41;;;;;;;;;;;6.00;61.10;;;;;;5031023;28;81879;-50
2022/04/12 09:44:08;;;;;;;;;;;6.00;61.10;;;;;;5030870;28;81905;-50
2022/04/12 09:46:38;;;;;;;;;;;6.00;61.00;;;;;;5030318;28;81999;-50
2022/04/12 09:49:05;;;;;;;;;;;6.00;61.10;;;;;;5029925;28;82778;-50
2022/04/12 09:51:32;;;;;;;;;;;6.00;61.20;;;;;;5033127;28;81874;-50
2022/04/12 09:53:57;;;;;;;;;;;6.00;61.30;;;;;;5030332;28;82641;-50
2022/04/12 09:56:27;;;;;;;;;;;6.10;61.30;;;;;;5030421;28;81733;-51
2022/04/12 09:58:55;;;;;;;;;;;6.10;61.20;;;;;;5030341;28;84469;-51
2022/04/12 10:01:21;;;;;;;;;;;6.10;61.30;;;;;;5030161;28;83628;-50
2022/04/12 10:03:51;;;;;;;;;;;6.10;61.00;;;;;;5030550;28;81900;-51
2022/04/12 10:06:19;;;;;;;;;;;6.20;61.00;;;;;;5031227;28;81064;-50
2022/04/12 10:08:46;;;;;;;;;;;6.10;61.00;;;;;;5030061;28;83347;-50
2022/04/12 10:11:13;;;;;;;;;;;6.20;61.00;;;;;;5033309;28;81964;-51
2022/04/12 10:13:39;;;;;;;;;;;6.20;60.90;;;;;;5029322;28;83499;-50
2022/04/12 10:16:09;;;;;;;;;;;6.20;60.90;;;;;;5030427;28;81857;-50
2022/04/12 10:18:34;;;;;;;;;;;6.30;61.00;;;;;;5030216;28;81852;-50
2022/04/12 10:21:00;;;;;;;;;;;6.30;61.70;;;;;;5030138;28;82481;-51
2022/04/12 10:23:26;;;;;;;;;;;6.30;61.20;;;;;;5030280;28;82101;-50
2022/04/12 10:25:55;;;;;;;;;;;6.30;60.90;;;;;;5030062;28;82031;-50
2022/04/12 10:28:23;;;;;;;;;;;6.30;61.10;;;;;;5030027;28;82542;-51
2022/04/12 10:30:49;;;;;;;;;;;6.40;61.00;;;;;;5030465;28;81069;-50
2022/04/12 10:33:15;;;;;;;;;;;6.40;60.90;;;;;;5032533;28;81778;-50
2022/04/12 10:35:46;;;;;;;;;;;6.40;60.90;;;;;;5029886;28;81847;-51
2022/04/12 10:38:16;;;;;;;;;;;6.40;60.70;;;;;;5028965;28;82878;-50
2022/04/12 10:40:49;;;;;;;;;;;6.50;60.80;;;;;;5029662;28;82940;-51
2022/04/12 10:43:15;;;;;;;;;;;6.50;60.70;;;;;;5029689;28;82115;-51
2022/04/12 10:49:11;;;;;;;;;;;6.50;60.50;;;;;;5030356;28;82292;-50
2022/04/12 10:54:41;;;;;;;;;;;6.60;60.70;;;;;;5027268;28;81672;-50
2022/04/12 11:00:11;;;;;;;;;;;6.70;60.80;;;;;;5027371;28;81671;-50
2022/04/12 11:05:42;;;;;;;;;;;6.70;60.90;;;;;;5026512;28;82610;-51
2022/04/12 11:11:11;;;;;;;;;;;6.80;60.60;;;;;;5026817;28;81967;-50
2022/04/12 11:16:47;;;;;;;;;;;6.80;60.60;;;;;;5027150;28;81667;-51
2022/04/12 11:22:17;;;;;;;;;;;6.90;60.70;;;;;;5029697;28;81683;-50
2022/04/12 11:27:46;;;;;;;;;;;6.90;60.70;;;;;;5026762;28;81593;-51
2022/04/12 11:33:15;;;;;;;;;;;7.00;60.80;;;;;;5026005;28;82629;-51
2022/04/12 11:38:43;;;;;;;;;;;7.00;60.20;;;;;;5026765;28;81715;-51
2022/04/12 11:44:12;;;;;;;;;;;7.10;60.60;;;;;;5026693;28;81537;-50
2022/04/12 11:49:42;;;;;;;;;;;7.10;61.10;;;;;;5028998;27;81764;-51
2022/04/12 11:55:11;;;;;;;;;;;7.20;60.60;;;;;;5029812;28;81913;-51
2022/04/12 12:00:40;;;;;;;;;;;7.20;60.70;;;;;;5029372;28;82609;-51
2022/04/12 12:06:09;;;;;;;;;;;7.30;60.40;;;;;;5029751;28;81649;-50
2022/04/12 12:11:38;;;;;;;;;;;7.40;60.20;;;;;;5029757;28;81561;-51
2022/04/12 12:17:09;;;;;;;;;;;7.40;60.40;;;;;;5029468;28;82013;-51
2022/04/12 12:22:40;;;;;;;;;;;7.40;60.50;;;;;;5029659;28;81720;-51
2022/04/12 12:28:13;;;;;;;;;;;7.50;60.60;;;;;;5028724;28;82713;-52
2022/04/12 12:33:44;;;;;;;;;;;7.50;60.50;;;;;;5031996;28;82206;-51
2022/04/12 12:39:17;;;;;;;;;;;7.60;60.40;;;;;;5029223;28;81869;-51
2022/04/12 12:44:46;;;;;;;;;;;7.70;60.40;;;;;;5029269;28;81634;-51
2022/04/12 12:50:15;;;;;;;;;;;7.70;60.30;;;;;;5029123;28;81649;-52
2022/04/12 12:55:45;;;;;;;;;;;7.80;60.30;;;;;;5028184;28;82911;-51
2022/04/12 13:01:15;;;;;;;;;;;7.90;60.30;;;;;;5028553;28;81997;-51
2022/04/12 13:06:43;;;;;;;;;;;8.00;60.10;;;;;;5028857;28;81687;-51
2022/04/12 13:12:12;;;;;;;;;;;8.00;60.10;;;;;;5028843;28;81681;-51
2022/04/12 13:17:41;;;;;;;;;;;8.10;60.10;;;;;;5028362;28;81793;-53
2022/04/12 13:23:10;;;;;;;;;;;8.10;60.00;;;;;;5030597;28;82739;-51
2022/04/12 13:28:38;;;;;;;;;;;8.20;60.00;;;;;;5028640;28;81647;-51
2022/04/12 13:34:07;;;;;;;;;;;8.30;60.20;;;;;;5028504;28;81715;-51
2022/04/12 13:39:35;;;;;;;;;;;8.40;60.00;;;;;;5028127;28;82040;-51
2022/04/12 13:45:04;;;;;;;;;;;8.50;60.00;;;;;;5028851;28;81699;-51
2022/04/12 13:50:33;;;;;;;;;;;8.50;59.90;;;;;;5027602;28;82619;-51
2022/04/12 13:56:02;;;;;;;;;;;8.60;59.60;;;;;;5028042;28;81683;-52
2022/04/12 14:01:31;;;;;;;;;;;8.70;59.70;;;;;;5027822;28;81952;-51
2022/04/12 14:06:59;;;;;;;;;;;8.80;59.20;;;;;;5027877;28;81672;-53
2022/04/12 14:12:28;;;;;;;;;;;8.90;59.20;;;;;;5029869;28;81655;-51
2022/04/12 14:17:57;;;;;;;;;;;9.00;58.60;;;;;;5027076;28;82718;-52
2022/04/12 14:23:25;;;;;;;;;;;9.00;58.70;;;;;;5027469;28;81858;-52
2022/04/12 14:28:54;;;;;;;;;;;9.10;58.70;;;;;;5027593;28;81700;-52
2022/04/12 14:34:22;;;;;;;;;;;9.20;58.70;;;;;;5030266;28;81527;-51
2022/04/12 14:39:51;;;;;;;;;;;9.30;58.40;;;;;;5027604;28;81804;-52
2022/04/12 14:45:23;;;;;;;;;;;9.40;58.30;;;;;;5025541;28;82850;-52
2022/04/12 14:50:55;;;;;;;;;;;9.50;58.20;;;;;;5027411;28;81692;-52
2022/04/12 14:56:26;;;;;;;;;;;9.60;58.10;;;;;;5027337;28;81718;-52
2022/04/12 15:01:54;;;;;;;;;;;9.70;58.50;;;;;;5027201;28;81698;-52
2022/04/12 15:07:23;;;;;;;;;;;9.60;58.10;;;;;;5026786;28;81890;-52
2022/04/12 15:12:51;;;;;;;;;;;9.70;58.40;;;;;;5026539;28;82639;-53
2022/04/12 15:18:20;;;;;;;;;;;9.70;58.60;;;;;;5027050;28;81599;-52
2022/04/12 15:23:49;;;;;;;;;;;9.80;58.20;;;;;;5032097;28;82004;-51
2022/04/12 15:29:17;;;;;;;;;;;9.80;58.50;;;;;;5030241;28;81702;-51
2022/04/12 15:34:46;;;;;;;;;;;9.90;58.80;;;;;;5029937;28;81686;-55
2022/04/12 15:40:16;;;;;;;;;;;10.00;58.70;;;;;;5029114;28;82658;-53
2022/04/12 15:45:44;;;;;;;;;;;10.00;59.10;;;;;;5025696;28;81816;-49
2022/04/12 15:51:13;;;;;;;;;;;10.10;59.00;;;;;;5029394;28;81844;-50
2022/04/12 15:56:43;;;;;;;;;;;10.10;59.00;;;;;;5029585;28;81774;-51
2022/04/12 16:02:12;;;;;;;;;;;10.20;59.20;;;;;;5029349;28;81636;-50
2022/04/12 16:07:47;;;;;;;;;;;10.30;59.20;;;;;;5028334;28;82636;-52
2022/04/12 16:13:15;;;;;;;;;;;10.30;59.30;;;;;;5031658;28;81689;-52
2022/04/12 16:18:44;;;;;;;;;;;10.40;59.40;;;;;;5029253;28;81669;-52
2022/04/12 16:24:13;;;;;;;;;;;10.40;59.50;;;;;;5028993;28;81707;-55
2022/04/12 16:29:42;;;;;;;;;;;10.50;59.70;;;;;;5028766;28;81687;-52
2022/04/12 16:35:10;;;;;;;;;;;10.50;59.80;;;;;;5027750;28;82711;-53
2022/04/12 16:40:39;;;;;;;;;;;10.50;59.90;;;;;;5028808;28;81686;-52
2022/04/12 16:46:07;;;;;;;;;;;10.60;60.10;;;;;;5025338;28;82032;-52
2022/04/12 16:51:36;;;;;;;;;;;10.60;60.00;;;;;;5028489;28;81958;-52
2022/04/12 16:57:04;;;;;;;;;;;10.70;59.80;;;;;;5028500;28;81634;-52
2022/04/12 17:02:33;;;;;;;;;;;10.90;59.40;;;;;;5027868;28;82640;-53
2022/04/12 17:08:02;;;;;;;;;;;10.90;59.20;;;;;;5028228;28;81620;-51
2022/04/12 17:13:30;;;;;;;;;;;10.90;59.40;;;;;;5028055;28;82084;-51
2022/04/12 17:18:59;;;;;;;;;;;10.80;59.30;;;;;;5028177;28;81602;-55
2022/04/12 17:24:27;;;;;;;;;;;10.80;59.40;;;;;;5030665;28;81704;-52
2022/04/12 17:29:56;;;;;;;;;;;10.80;59.50;;;;;;5027287;28;82621;-52
2022/04/12 17:35:24;;;;;;;;;;;10.80;59.60;;;;;;5027531;28;81981;-52
2022/04/12 17:40:52;;;;;;;;;;;10.80;59.60;;;;;;5027729;28;81690;-52
2022/04/12 17:46:21;;;;;;;;;;;10.80;59.60;;;;;;5024779;28;81866;-56
2022/04/12 17:51:49;;;;;;;;;;;10.80;59.40;;;;;;5027588;28;81666;-54
2022/04/12 17:57:18;;;;;;;;;;;10.80;59.60;;;;;;5026637;28;82866;-52
2022/04/12 18:02:46;;;;;;;;;;;10.80;59.60;;;;;;5027618;28;82020;-53
2022/04/12 18:08:14;;;;;;;;;;;10.80;59.60;;;;;;5027129;28;81896;-54
2022/04/12 18:13:43;;;;;;;;;;;10.70;59.60;;;;;;5029779;28;82050;-54
2022/04/12 18:19:11;;;;;;;;;;;10.70;59.60;;;;;;5027026;28;81953;-52
2022/04/12 18:24:40;;;;;;;;;;;10.70;59.70;;;;;;5026496;28;82611;-53
2022/04/12 18:30:08;;;;;;;;;;;10.70;59.70;;;;;;5027055;28;81687;-53
2022/04/12 18:35:37;;;;;;;;;;;10.70;59.80;;;;;;5026841;28;81974;-51
2022/04/12 18:41:07;;;;;;;;;;;10.70;59.80;;;;;;5026670;28;81714;-51
2022/04/12 18:46:36;;;;;;;;;;;10.70;60.40;;;;;;5025401;28;81817;-53
2022/04/12 18:52:04;;;;;;;;;;;10.70;59.70;;;;;;5026196;28;82671;-52
2022/04/12 18:57:33;;;;;;;;;;;10.70;59.70;;;;;;5026533;28;81967;-51
2022/04/12 19:03:02;;;;;;;;;;;10.70;59.70;;;;;;5029245;28;81632;-53